Time;durP1;ratioP1;P1;durP2;ratioP2;P2;SDS_P1;SDS_P2;PMS_P1;PMS_P2;Temp;Humidity;BMP_temperature;BMP_pressure;BME280_temperature;BME280_humidity;BME280_pressure;Samples;Min_cycle;Max_cycle;Signal;HPM_P1;HPM_P2
2022/06/21 00:02:04;;;;;;;27.00;24.30;;;19.60;95.90;;;;;;4877319;29;20195;-63
2022/06/21 00:04:30;;;;;;;27.57;24.93;;;19.70;96.10;;;;;;4866028;29;20180;-63
2022/06/21 00:07:01;;;;;;;24.67;22.17;;;19.80;96.00;;;;;;4866002;29;20213;-63
2022/06/21 00:09:26;;;;;;;26.13;23.73;;;19.70;95.80;;;;;;4881280;29;20196;-63
2022/06/21 00:11:52;;;;;;;25.87;23.17;;;19.70;95.90;;;;;;4868114;29;20192;-63
2022/06/21 00:14:17;;;;;;;24.70;21.57;;;19.70;95.90;;;;;;4853054;29;20384;-63
2022/06/21 00:16:43;;;;;;;21.77;19.50;;;19.70;95.60;;;;;;4853449;29;20255;-63
2022/06/21 00:19:19;;;;;;;23.80;21.30;;;19.60;95.50;;;;;;4853693;29;20215;-63
2022/06/21 00:21:45;;;;;;;24.43;21.83;;;19.60;95.80;;;;;;4877738;29;20195;-63
2022/06/21 00:24:18;;;;;;;21.43;19.27;;;19.60;95.60;;;;;;4865966;29;20224;-63
2022/06/21 00:26:46;;;;;;;21.50;19.27;;;19.50;95.40;;;;;;4896546;29;20259;-63
2022/06/21 00:29:12;;;;;;;20.53;18.70;;;19.40;95.20;;;;;;4883893;29;20188;-63
2022/06/21 00:31:44;;;;;;;20.80;18.70;;;19.40;95.40;;;;;;4866569;29;20468;-63
2022/06/21 00:34:17;;;;;;;21.67;19.77;;;19.40;95.30;;;;;;4888959;29;20193;-63
2022/06/21 00:36:44;;;;;;;24.33;20.33;;;19.30;95.50;;;;;;4879128;29;20231;-63
2022/06/21 00:39:13;;;;;;;20.37;18.47;;;19.30;95.40;;;;;;4878897;29;20235;-63
2022/06/21 00:41:51;;;;;;;23.07;18.73;;;19.30;95.70;;;;;;4881603;29;20211;-63
2022/06/21 00:44:27;;;;;;;22.83;18.67;;;19.30;95.60;;;;;;4881200;29;20187;-63
2022/06/21 00:47:02;;;;;;;19.80;17.83;;;19.30;95.30;;;;;;4883604;29;20183;-63
2022/06/21 00:49:32;;;;;;;20.90;17.90;;;19.20;95.20;;;;;;4880056;29;20270;-63
2022/06/21 00:52:16;;;;;;;21.10;18.83;;;19.10;95.20;;;;;;4878144;29;20216;-63
2022/06/21 00:55:03;;;;;;;20.57;18.40;;;19.10;95.30;;;;;;4894348;29;20195;-63
2022/06/21 00:57:42;;;;;;;21.80;19.60;;;19.10;95.40;;;;;;4897161;29;20195;-63
2022/06/21 01:00:52;;;;;;;21.60;19.37;;;19.00;95.30;;;;;;4883239;29;20267;-63
2022/06/21 01:03:22;;;;;;;19.10;17.20;;;19.10;95.50;;;;;;4876703;29;20282;-63
2022/06/21 01:05:50;;;;;;;20.23;18.33;;;19.10;95.90;;;;;;4879719;29;20203;-63
2022/06/21 01:08:20;;;;;;;22.70;18.57;;;19.20;95.90;;;;;;4865041;29;20197;-63
2022/06/21 01:10:52;;;;;;;23.10;18.53;;;19.10;95.50;;;;;;4892425;29;20188;-63
2022/06/21 01:13:22;;;;;;;20.20;17.93;;;19.10;95.50;;;;;;4887894;29;20191;-63
2022/06/21 01:15:50;;;;;;;19.43;17.53;;;19.00;95.30;;;;;;4887564;29;20195;-63
2022/06/21 01:18:18;;;;;;;19.43;17.30;;;19.00;95.40;;;;;;4870311;29;20259;-63
2022/06/21 01:20:48;;;;;;;23.27;17.27;;;19.00;95.30;;;;;;4899590;29;20189;-63
2022/06/21 01:23:50;;;;;;;22.83;16.90;;;18.90;95.40;;;;;;4882700;29;20181;-63
2022/06/21 01:26:35;;;;;;;18.00;15.60;;;18.90;95.40;;;;;;4882755;29;20241;-63
2022/06/21 01:29:03;;;;;;;18.97;16.77;;;18.90;95.40;;;;;;4870833;29;20189;-63
2022/06/21 01:31:30;;;;;;;20.73;17.93;;;18.90;95.60;;;;;;4888918;29;20192;-63
2022/06/21 01:33:56;;;;;;;19.17;17.17;;;18.90;95.50;;;;;;4867675;29;20195;-63
2022/06/21 01:36:26;;;;;;;22.87;16.33;;;18.90;95.40;;;;;;4867592;29;20199;-63
2022/06/21 01:39:06;;;;;;;18.50;16.43;;;18.90;95.50;;;;;;4881693;29;20215;-63
2022/06/21 01:41:46;;;;;;;19.50;17.27;;;18.90;95.50;;;;;;4874345;29;20230;-63
2022/06/21 01:44:18;;;;;;;20.03;17.93;;;18.90;95.40;;;;;;4884070;29;20196;-63
2022/06/21 01:46:45;;;;;;;19.50;15.47;;;18.90;95.80;;;;;;4897536;29;20231;-63
2022/06/21 01:49:14;;;;;;;19.03;16.93;;;18.90;95.60;;;;;;4882639;29;20279;-63
2022/06/21 01:51:48;;;;;;;19.70;16.63;;;18.90;95.50;;;;;;4882200;29;20278;-63
2022/06/21 01:54:17;;;;;;;21.33;16.03;;;18.90;95.50;;;;;;4882847;29;20194;-63
2022/06/21 01:56:45;;;;;;;17.97;16.13;;;18.90;95.70;;;;;;4881284;29;20196;-63
2022/06/21 01:59:14;;;;;;;18.23;16.33;;;18.90;95.60;;;;;;4875255;29;20215;-63
2022/06/21 02:02:01;;;;;;;18.63;16.80;;;18.90;95.60;;;;;;4880749;29;20267;-63
2022/06/21 02:04:40;;;;;;;18.87;16.87;;;18.90;95.60;;;;;;4882629;29;20247;-63
2022/06/21 02:07:10;;;;;;;18.00;16.10;;;18.90;95.50;;;;;;4888017;29;20191;-63
2022/06/21 02:09:42;;;;;;;18.80;17.03;;;18.90;95.60;;;;;;4881986;29;20220;-63
2022/06/21 02:12:12;;;;;;;19.30;17.50;;;18.90;95.60;;;;;;4882115;29;20191;-63
2022/06/21 02:14:51;;;;;;;19.33;17.43;;;18.90;95.60;;;;;;4880711;29;20264;-63
2022/06/21 02:17:29;;;;;;;19.57;17.57;;;18.90;95.50;;;;;;4878404;29;20240;-63
2022/06/21 02:20:22;;;;;;;17.97;16.00;;;18.90;95.90;;;;;;4874119;29;20230;-63
2022/06/21 02:22:48;;;;;;;19.57;16.93;;;19.00;95.80;;;;;;4886738;29;20183;-63
2022/06/21 02:25:17;;;;;;;17.17;15.37;;;18.90;95.60;;;;;;4863353;29;20236;-63
2022/06/21 02:27:44;;;;;;;18.93;14.67;;;18.80;95.30;;;;;;4884517;29;20194;-63
2022/06/21 02:30:23;;;;;;;18.43;15.50;;;18.80;95.30;;;;;;4892270;29;20221;-63
2022/06/21 02:32:52;;;;;;;18.37;15.23;;;18.80;95.30;;;;;;4881095;29;20200;-63
2022/06/21 02:35:17;;;;;;;22.10;15.90;;;18.70;95.20;;;;;;4876217;29;20199;-63
2022/06/21 02:37:45;;;;;;;18.73;14.93;;;18.70;95.00;;;;;;4899686;29;20208;-63
2022/06/21 02:40:18;;;;;;;19.23;17.33;;;18.70;95.30;;;;;;4874317;29;20215;-63
2022/06/21 02:42:45;;;;;;;20.47;15.40;;;18.70;95.60;;;;;;4868623;29;20245;-63
2022/06/21 02:45:30;;;;;;;17.63;14.67;;;18.60;95.30;;;;;;4848256;29;20216;-63
2022/06/21 02:47:59;;;;;;;24.07;15.20;;;18.60;95.30;;;;;;4881747;29;20183;-63
2022/06/21 02:50:52;;;;;;;17.90;16.03;;;18.50;95.10;;;;;;4882377;29;20189;-63
2022/06/21 02:53:24;;;;;;;19.53;15.77;;;18.50;95.10;;;;;;4878923;29;20212;-63
2022/06/21 02:56:10;;;;;;;20.67;15.60;;;18.40;95.00;;;;;;4880349;29;20193;-63
2022/06/21 02:58:51;;;;;;;18.03;14.33;;;18.40;95.10;;;;;;4869637;29;20230;-63
2022/06/21 03:01:28;;;;;;;18.87;14.57;;;18.40;95.10;;;;;;4878860;29;20188;-63
2022/06/21 03:03:54;;;;;;;20.27;15.77;;;18.30;95.00;;;;;;4889930;29;20204;-63
2022/06/21 03:06:21;;;;;;;15.73;14.13;;;18.30;95.50;;;;;;4861633;29;20196;-63
2022/06/21 03:08:56;;;;;;;19.47;14.80;;;18.30;95.30;;;;;;4887838;29;20215;-64
2022/06/21 03:11:24;;;;;;;18.47;14.40;;;18.30;95.20;;;;;;4901318;29;20354;-64
2022/06/21 03:13:50;;;;;;;18.10;13.43;;;18.30;95.00;;;;;;4901304;29;20196;-64
2022/06/21 03:16:18;;;;;;;16.27;14.27;;;18.30;95.10;;;;;;4860823;29;20228;-64
2022/06/21 03:18:51;;;;;;;15.80;14.03;;;18.30;95.20;;;;;;4876825;29;20302;-65
2022/06/21 03:21:47;;;;;;;17.93;15.03;;;18.20;95.10;;;;;;4899782;29;20181;-65
2022/06/21 03:24:18;;;;;;;19.47;15.33;;;18.20;95.10;;;;;;4882983;29;20223;-65
2022/06/21 03:27:08;;;;;;;20.23;15.43;;;18.20;95.10;;;;;;4874218;29;20279;-65
2022/06/21 03:29:34;;;;;;;17.77;14.17;;;18.20;95.10;;;;;;4894391;29;20189;-65
2022/06/21 03:32:03;;;;;;;17.43;15.73;;;18.20;95.30;;;;;;4895521;29;20352;-65
2022/06/21 03:34:30;;;;;;;18.97;17.07;;;18.20;95.40;;;;;;4901674;29;20191;-65
2022/06/21 03:36:59;;;;;;;20.30;14.97;;;18.20;95.50;;;;;;4862612;29;20276;-65
2022/06/21 03:42:14;;;;;;;16.70;15.10;;;18.30;95.60;;;;;;4891936;29;20190;-64
2022/06/21 03:44:54;;;;;;;18.33;14.97;;;18.20;95.40;;;;;;4891527;29;20188;-64
2022/06/21 03:47:25;;;;;;;16.70;14.93;;;18.20;95.20;;;;;;4889397;29;20184;-64
2022/06/21 03:49:54;;;;;;;16.40;14.73;;;18.20;95.30;;;;;;4879107;29;20188;-64
2022/06/21 03:52:42;;;;;;;16.70;14.77;;;18.30;95.40;;;;;;4866501;29;20196;-64
2022/06/21 03:55:26;;;;;;;17.37;15.37;;;18.30;95.40;;;;;;4877651;29;20213;-64
2022/06/21 03:58:10;;;;;;;18.90;14.87;;;18.30;95.30;;;;;;4897284;29;20216;-64
2022/06/21 04:00:47;;;;;;;16.77;14.80;;;18.30;95.50;;;;;;4876118;29;20276;-65
2022/06/21 04:03:27;;;;;;;17.97;14.07;;;18.30;95.50;;;;;;4871568;29;20191;-64
2022/06/21 04:06:21;;;;;;;19.37;15.83;;;18.40;95.60;;;;;;4901013;29;20184;-64
2022/06/21 04:09:00;;;;;;;19.47;15.27;;;18.40;95.70;;;;;;4871092;29;20197;-64
2022/06/21 04:11:36;;;;;;;15.90;14.30;;;18.40;95.50;;;;;;4883936;29;20208;-64
2022/06/21 04:14:19;;;;;;;17.70;14.97;;;18.40;95.40;;;;;;4873522;29;20213;-64
2022/06/21 04:17:02;;;;;;;16.00;14.10;;;18.40;95.30;;;;;;4886639;29;20193;-64
2022/06/21 04:19:43;;;;;;;15.17;13.70;;;18.40;95.40;;;;;;4898268;29;20208;-63
2022/06/21 04:22:16;;;;;;;15.97;13.33;;;18.40;95.20;;;;;;4895279;29;20192;-64
2022/06/21 04:24:59;;;;;;;15.80;14.17;;;18.30;95.20;;;;;;4882029;29;20181;-64
2022/06/21 04:27:33;;;;;;;15.67;14.00;;;18.40;95.40;;;;;;4875294;29;20207;-65
2022/06/21 04:30:11;;;;;;;15.07;13.60;;;18.40;95.30;;;;;;4876461;29;20200;-63
2022/06/21 04:33:10;;;;;;;16.30;14.60;;;18.40;95.40;;;;;;4872248;29;20188;-63
2022/06/21 04:35:40;;;;;;;15.17;13.77;;;18.40;95.70;;;;;;4841346;29;20232;-64
2022/06/21 04:38:35;;;;;;;15.93;14.20;;;18.50;95.60;;;;;;4876324;29;20200;-64
2022/06/21 04:41:17;;;;;;;14.63;13.10;;;18.40;95.20;;;;;;4885435;29;20236;-64
2022/06/21 04:43:45;;;;;;;19.03;14.40;;;18.30;95.10;;;;;;4889311;29;20281;-64
2022/06/21 04:46:24;;;;;;;15.27;13.77;;;18.30;95.10;;;;;;4870838;29;20243;-63
2022/06/21 04:49:00;;;;;;;15.50;13.97;;;18.30;95.20;;;;;;4874104;29;20199;-66
2022/06/21 04:51:40;;;;;;;15.70;14.20;;;18.30;95.20;;;;;;4890022;29;20279;-64
2022/06/21 04:54:24;;;;;;;16.50;14.90;;;18.30;95.40;;;;;;4886480;29;20200;-64
2022/06/21 04:57:07;;;;;;;16.67;13.97;;;18.30;95.70;;;;;;4888963;29;20238;-64
2022/06/21 04:59:33;;;;;;;14.43;12.93;;;18.40;95.60;;;;;;4892496;29;20423;-63
2022/06/21 05:01:59;;;;;;;16.13;14.50;;;18.40;95.60;;;;;;4878971;29;20264;-62
2022/06/21 05:04:36;;;;;;;14.90;13.63;;;18.40;95.50;;;;;;4888539;29;20223;-64
2022/06/21 05:07:05;;;;;;;15.27;13.87;;;18.50;95.60;;;;;;4868769;29;20327;-63
2022/06/21 05:09:33;;;;;;;16.20;14.77;;;18.40;95.50;;;;;;4871364;29;20200;-64
2022/06/21 05:12:11;;;;;;;16.70;15.07;;;18.50;95.60;;;;;;4871113;29;20181;-69
2022/06/21 05:14:43;;;;;;;16.03;14.43;;;18.50;95.40;;;;;;4893236;29;20193;-72
2022/06/21 05:17:14;;;;;;;16.83;14.80;;;18.50;95.50;;;;;;4883175;29;20184;-72
2022/06/21 05:19:46;;;;;;;18.17;15.03;;;18.40;95.40;;;;;;4870723;29;20216;-70
2022/06/21 05:22:41;;;;;;;18.00;15.63;;;18.50;95.40;;;;;;4895251;29;20209;-74
2022/06/21 05:25:20;;;;;;;16.60;15.07;;;18.50;95.60;;;;;;4872263;29;20287;-72
2022/06/21 05:27:57;;;;;;;17.13;15.37;;;18.50;95.70;;;;;;4866147;29;20193;-71
2022/06/21 05:30:44;;;;;;;16.37;14.90;;;18.60;95.70;;;;;;4896988;29;20184;-72
2022/06/21 05:33:38;;;;;;;18.77;16.53;;;18.70;95.90;;;;;;4888324;29;20195;-72
2022/06/21 05:36:09;;;;;;;18.83;16.83;;;18.70;96.00;;;;;;4871128;29;20229;-72
2022/06/21 05:38:45;;;;;;;19.07;16.40;;;18.70;95.90;;;;;;4892643;29;20291;-71
2022/06/21 05:41:30;;;;;;;17.57;15.80;;;18.80;95.90;;;;;;4860734;29;20244;-71
2022/06/21 05:44:28;;;;;;;16.73;15.00;;;18.70;95.80;;;;;;4890757;29;20188;-71
2022/06/21 05:47:02;;;;;;;19.37;15.17;;;18.80;96.00;;;;;;4889694;29;20271;-72
2022/06/21 05:49:31;;;;;;;16.87;15.17;;;18.80;95.70;;;;;;4868231;29;20189;-72
2022/06/21 05:52:01;;;;;;;18.90;15.47;;;18.80;95.70;;;;;;4870889;29;20200;-72
2022/06/21 05:54:37;;;;;;;19.23;17.33;;;18.90;95.80;;;;;;4877493;29;20192;-72
2022/06/21 05:57:06;;;;;;;19.53;17.43;;;18.90;95.80;;;;;;4886940;29;20272;-73
2022/06/21 05:59:32;;;;;;;19.93;16.37;;;19.00;95.80;;;;;;4879348;29;20207;-72
2022/06/21 06:02:06;;;;;;;18.50;16.50;;;19.00;95.90;;;;;;4873043;29;20297;-72
2022/06/21 06:04:45;;;;;;;19.33;17.33;;;19.00;95.90;;;;;;4880737;29;20187;-71
2022/06/21 06:07:26;;;;;;;19.10;17.17;;;19.10;96.00;;;;;;4870166;29;20195;-71
2022/06/21 06:09:56;;;;;;;21.07;17.53;;;19.30;96.20;;;;;;4887108;29;20248;-69
2022/06/21 06:12:48;;;;;;;22.03;19.63;;;19.30;96.20;;;;;;4882353;29;20183;-72
2022/06/21 06:15:26;;;;;;;19.07;16.53;;;19.50;96.30;;;;;;4891727;29;20204;-72
2022/06/21 06:18:44;;;;;;;18.37;16.47;;;19.50;96.20;;;;;;4869714;29;20216;-72
2022/06/21 06:21:23;;;;;;;20.60;16.93;;;19.70;96.20;;;;;;4855612;29;20238;-72
2022/06/21 06:23:58;;;;;;;18.63;16.83;;;19.80;96.30;;;;;;4868782;29;20195;-72
2022/06/21 06:26:38;;;;;;;19.27;17.43;;;19.80;96.40;;;;;;4880001;29;20250;-72
2022/06/21 06:29:23;;;;;;;18.60;16.93;;;20.00;96.40;;;;;;4870157;29;20184;-72
2022/06/21 06:32:16;;;;;;;20.73;18.77;;;20.00;96.20;;;;;;4879450;29;20219;-72
2022/06/21 06:34:46;;;;;;;20.43;18.47;;;20.10;96.10;;;;;;4897070;29;20192;-72
2022/06/21 06:37:25;;;;;;;19.73;17.83;;;20.20;96.00;;;;;;4893426;29;20191;-72
2022/06/21 06:39:52;;;;;;;20.20;18.37;;;20.30;96.00;;;;;;4884794;29;20233;-72
2022/06/21 06:42:27;;;;;;;20.77;18.67;;;20.30;95.90;;;;;;4874291;29;20187;-72
2022/06/21 06:45:03;;;;;;;20.73;18.70;;;20.40;95.90;;;;;;4893352;29;20223;-72
2022/06/21 06:47:34;;;;;;;20.13;18.23;;;20.40;95.90;;;;;;4884503;29;20187;-72
2022/06/21 06:50:09;;;;;;;20.43;18.53;;;20.50;95.80;;;;;;4892373;29;20192;-72
2022/06/21 06:52:55;;;;;;;20.73;18.30;;;20.50;95.80;;;;;;4886568;29;20195;-72
2022/06/21 06:55:42;;;;;;;18.33;16.53;;;20.60;95.60;;;;;;4877029;29;20200;-72
2022/06/21 06:58:23;;;;;;;22.37;18.57;;;20.60;95.50;;;;;;4881682;29;20212;-72
2022/06/21 07:00:56;;;;;;;21.53;19.53;;;20.70;95.70;;;;;;4883375;29;20182;-72
2022/06/21 07:03:29;;;;;;;20.70;18.37;;;20.80;95.80;;;;;;4882249;29;20184;-72
2022/06/21 07:06:15;;;;;;;21.63;19.50;;;20.80;95.60;;;;;;4875053;29;20271;-72
2022/06/21 07:08:48;;;;;;;21.90;19.60;;;20.80;95.50;;;;;;4896313;29;20224;-72
2022/06/21 07:11:32;;;;;;;21.83;18.03;;;20.90;95.50;;;;;;4882606;29;20191;-72
2022/06/21 07:14:01;;;;;;;23.10;20.67;;;20.80;94.40;;;;;;4888535;29;20196;-72
2022/06/21 07:16:29;;;;;;;20.97;18.30;;;20.90;95.00;;;;;;4878237;29;20187;-72
2022/06/21 07:18:59;;;;;;;22.00;19.87;;;20.90;94.50;;;;;;4884098;29;20344;-72
2022/06/21 07:21:26;;;;;;;21.53;19.47;;;20.90;94.30;;;;;;4876327;29;20183;-72
2022/06/21 07:23:54;;;;;;;20.77;18.80;;;20.90;94.30;;;;;;4867001;29;20216;-72
2022/06/21 07:26:37;;;;;;;24.67;21.17;;;21.00;94.40;;;;;;4883439;29;20265;-72
2022/06/21 07:29:22;;;;;;;23.53;21.07;;;21.00;94.60;;;;;;4867893;29;20228;-72
2022/06/21 07:32:18;;;;;;;24.87;20.83;;;21.00;94.40;;;;;;4879979;29;20192;-72
2022/06/21 07:34:51;;;;;;;22.73;19.80;;;21.00;94.70;;;;;;4883245;29;20287;-72
2022/06/21 07:37:37;;;;;;;22.00;19.90;;;20.90;93.50;;;;;;4876993;29;20255;-72
2022/06/21 07:40:09;;;;;;;23.03;20.83;;;20.90;92.80;;;;;;4895310;29;20208;-72
2022/06/21 07:42:57;;;;;;;21.57;19.33;;;20.80;93.00;;;;;;4882695;29;20247;-72
2022/06/21 07:45:44;;;;;;;24.43;22.13;;;20.60;93.30;;;;;;4881325;29;20274;-72
2022/06/21 07:48:21;;;;;;;25.93;22.60;;;20.60;93.60;;;;;;4897709;29;20184;-72
2022/06/21 07:51:02;;;;;;;25.10;22.53;;;20.60;94.20;;;;;;4880648;29;20194;-72
2022/06/21 07:53:52;;;;;;;25.07;22.40;;;20.60;94.30;;;;;;4882913;29;20191;-72
2022/06/21 07:56:42;;;;;;;28.90;23.13;;;20.60;94.40;;;;;;4896548;29;20259;-72
2022/06/21 07:59:18;;;;;;;26.07;23.47;;;20.60;94.20;;;;;;4863961;29;20213;-72
2022/06/21 08:08:15;;;;;;;19.93;17.77;;;20.40;93.80;;;;;;4887745;29;20245;-72
2022/06/21 08:11:12;;;;;;;17.70;15.27;;;20.30;94.00;;;;;;4882386;29;20230;-72
2022/06/21 08:13:40;;;;;;;16.97;14.53;;;20.30;93.40;;;;;;4882948;29;20260;-72
2022/06/21 08:16:33;;;;;;;17.43;14.43;;;20.20;93.70;;;;;;4883003;29;20191;-72
2022/06/21 08:19:01;;;;;;;15.07;13.67;;;20.10;93.60;;;;;;4881934;29;20224;-72
2022/06/21 08:21:43;;;;;;;16.13;14.63;;;20.00;93.70;;;;;;4873424;29;20214;-72
2022/06/21 08:24:18;;;;;;;15.50;14.03;;;20.00;93.60;;;;;;4880112;29;20247;-72
2022/06/21 08:27:15;;;;;;;16.30;14.80;;;19.90;93.80;;;;;;4881132;29;20230;-72
2022/06/21 08:29:56;;;;;;;15.87;14.37;;;19.90;93.70;;;;;;4869223;29;20210;-72
2022/06/21 08:33:00;;;;;;;15.17;13.70;;;19.80;93.40;;;;;;4882502;29;20191;-72
2022/06/21 08:35:47;;;;;;;16.70;15.00;;;19.80;94.00;;;;;;4888977;29;20200;-72
2022/06/21 08:38:35;;;;;;;17.37;15.27;;;19.70;93.30;;;;;;4885531;29;20255;-72
2022/06/21 08:41:55;;;;;;;17.73;15.97;;;19.70;93.80;;;;;;4882239;29;20188;-72
2022/06/21 08:44:41;;;;;;;19.47;17.50;;;19.70;94.20;;;;;;4871143;29;20211;-72
2022/06/21 08:47:32;;;;;;;18.77;16.87;;;19.60;94.20;;;;;;4881900;29;20187;-72
2022/06/21 08:50:32;;;;;;;20.70;18.60;;;19.60;94.20;;;;;;4882227;29;20188;-72
2022/06/21 08:53:22;;;;;;;21.90;19.80;;;19.50;94.10;;;;;;4894663;29;20278;-72
2022/06/21 08:56:12;;;;;;;23.27;20.87;;;19.50;94.30;;;;;;4867367;29;20272;-72
2022/06/21 08:59:10;;;;;;;24.43;22.03;;;19.50;94.40;;;;;;4881587;29;20215;-72
2022/06/21 09:01:49;;;;;;;22.67;20.37;;;19.40;94.30;;;;;;4881222;29;20183;-72
2022/06/21 09:04:52;;;;;;;22.70;20.33;;;19.40;93.70;;;;;;4877383;29;20259;-72
2022/06/21 09:07:40;;;;;;;24.97;22.43;;;19.30;93.90;;;;;;4878168;29;20250;-72
2022/06/21 09:10:24;;;;;;;22.37;20.23;;;19.30;94.10;;;;;;4879907;29;20187;-72
2022/06/21 09:13:03;;;;;;;26.00;20.77;;;19.30;94.00;;;;;;4897568;29;20220;-72
2022/06/21 09:16:13;;;;;;;26.47;22.47;;;19.30;94.60;;;;;;4868721;29;20196;-72
2022/06/21 09:18:52;;;;;;;24.37;21.83;;;19.30;94.70;;;;;;4870891;29;20226;-72
2022/06/21 09:21:34;;;;;;;24.83;22.17;;;19.30;94.30;;;;;;4877313;29;20196;-72
2022/06/21 09:24:30;;;;;;;26.17;23.37;;;19.30;94.50;;;;;;4880926;29;20183;-72
2022/06/21 09:27:04;;;;;;;27.73;24.50;;;19.30;94.10;;;;;;4853414;29;20282;-72
2022/06/21 09:29:36;;;;;;;26.33;23.20;;;19.30;94.60;;;;;;4880071;29;20223;-72
2022/06/21 09:32:19;;;;;;;24.30;21.80;;;19.30;94.20;;;;;;4871039;29;20239;-72
2022/06/21 09:34:54;;;;;;;26.93;23.97;;;19.30;94.30;;;;;;4879298;29;20192;-72
2022/06/21 09:37:41;;;;;;;25.87;23.07;;;19.30;93.90;;;;;;4880157;29;20198;-72
2022/06/21 09:40:25;;;;;;;25.40;23.00;;;19.30;94.20;;;;;;4878990;29;20203;-72
2022/06/21 09:43:21;;;;;;;26.73;22.77;;;19.30;94.30;;;;;;4892140;29;20208;-72
2022/06/21 09:45:53;;;;;;;24.13;21.50;;;19.20;93.90;;;;;;4864292;29;20278;-72
2022/06/21 09:48:34;;;;;;;25.67;23.00;;;19.20;93.90;;;;;;4869888;29;20192;-72
2022/06/21 09:51:09;;;;;;;25.23;22.37;;;19.20;94.10;;;;;;4887143;29;20262;-72
2022/06/21 09:53:53;;;;;;;23.00;20.70;;;19.20;94.30;;;;;;4881187;29;20286;-72
2022/06/21 09:56:39;;;;;;;26.10;23.37;;;19.20;93.90;;;;;;4880533;29;20266;-72
2022/06/21 09:59:13;;;;;;;25.60;23.17;;;19.20;94.40;;;;;;4879355;29;20227;-72
2022/06/21 10:01:45;;;;;;;25.07;22.57;;;19.20;94.60;;;;;;4878463;29;20226;-72
2022/06/21 10:04:28;;;;;;;26.63;23.93;;;19.20;94.10;;;;;;4881171;29;20191;-72
2022/06/21 10:07:13;;;;;;;27.20;24.33;;;19.20;94.60;;;;;;4880611;29;20219;-72
2022/06/21 10:10:13;;;;;;;26.37;23.33;;;19.30;94.60;;;;;;4876459;29;20271;-72
2022/06/21 10:12:54;;;;;;;25.10;22.63;;;19.30;94.50;;;;;;4872500;29;20286;-72
2022/06/21 10:15:39;;;;;;;25.00;22.40;;;19.30;94.20;;;;;;4871588;29;20191;-72
2022/06/21 10:18:26;;;;;;;24.80;22.33;;;19.30;94.00;;;;;;4876256;29;20224;-72
2022/06/21 10:21:12;;;;;;;23.33;20.23;;;19.30;94.00;;;;;;4876968;29;20198;-72
2022/06/21 10:23:50;;;;;;;24.53;21.93;;;19.30;93.60;;;;;;4874266;29;20184;-72
2022/06/21 10:26:28;;;;;;;27.47;24.27;;;19.30;94.10;;;;;;4880405;29;20326;-72
2022/06/21 10:29:05;;;;;;;25.90;22.17;;;19.30;94.50;;;;;;4897454;29;20200;-72
2022/06/21 10:32:08;;;;;;;27.30;22.77;;;19.30;94.20;;;;;;4877683;29;20243;-72
2022/06/21 10:34:49;;;;;;;25.67;22.97;;;19.30;93.70;;;;;;4886669;29;20200;-72
2022/06/21 10:37:17;;;;;;;29.13;23.30;;;19.40;93.90;;;;;;4879374;29;20195;-72
2022/06/21 10:39:55;;;;;;;25.70;22.73;;;19.40;93.80;;;;;;4878055;29;20235;-72
2022/06/21 10:45:26;;;;;;;25.43;22.53;;;19.40;93.70;;;;;;4888051;29;20190;-72
2022/06/21 10:48:13;;;;;;;26.93;23.53;;;19.30;93.20;;;;;;4880133;29;20192;-72
2022/06/21 10:51:05;;;;;;;25.87;23.13;;;19.30;93.80;;;;;;4888806;29;20192;-72
2022/06/21 10:53:56;;;;;;;30.43;22.77;;;19.30;93.30;;;;;;4870658;29;20184;-72
2022/06/21 10:57:10;;;;;;;28.73;23.43;;;19.30;93.80;;;;;;4890045;29;20227;-72
2022/06/21 11:02:51;;;;;;;25.57;22.37;;;19.30;93.70;;;;;;4884321;29;20244;-72
2022/06/21 11:05:28;;;;;;;28.07;23.27;;;19.30;93.70;;;;;;4879809;29;20184;-71
2022/06/21 11:08:13;;;;;;;28.23;23.63;;;19.30;93.60;;;;;;4880061;29;20192;-71
2022/06/21 11:10:49;;;;;;;29.23;24.50;;;19.20;93.90;;;;;;4872742;29;20192;-72
2022/06/21 11:13:17;;;;;;;29.80;25.07;;;19.20;93.70;;;;;;4874454;29;20189;-70
2022/06/21 11:15:51;;;;;;;32.87;27.40;;;19.20;94.30;;;;;;4893850;29;20180;-70
2022/06/21 11:18:38;;;;;;;30.30;27.20;;;19.30;94.70;;;;;;4891602;29;20224;-70
2022/06/21 11:21:29;;;;;;;29.83;26.60;;;19.30;94.40;;;;;;4876598;29;20184;-70
2022/06/21 11:24:02;;;;;;;33.77;28.33;;;19.20;93.90;;;;;;4878908;29;20197;-70
2022/06/21 11:26:43;;;;;;;32.87;29.30;;;19.20;94.70;;;;;;4872647;29;20247;-71
2022/06/21 11:29:44;;;;;;;34.60;30.77;;;19.30;94.90;;;;;;4880222;29;20191;-70
2022/06/21 11:32:28;;;;;;;33.93;30.00;;;19.30;95.00;;;;;;4884976;29;20255;-70
2022/06/21 11:35:03;;;;;;;34.40;30.73;;;19.30;94.90;;;;;;4874774;29;20203;-70
2022/06/21 11:38:15;;;;;;;36.27;29.67;;;19.30;94.40;;;;;;4884492;29;20279;-71
2022/06/21 11:40:56;;;;;;;32.97;27.90;;;19.30;94.10;;;;;;4893588;29;20195;-70
2022/06/21 11:43:40;;;;;;;30.93;27.30;;;19.30;94.10;;;;;;4885218;29;20203;-70
2022/06/21 11:46:26;;;;;;;28.70;25.10;;;19.20;94.00;;;;;;4901103;29;20188;-71
2022/06/21 11:48:52;;;;;;;28.53;25.50;;;19.30;94.00;;;;;;4884625;29;20199;-70
2022/06/21 11:51:43;;;;;;;30.17;27.07;;;19.30;93.80;;;;;;4882768;29;20188;-70
2022/06/21 11:54:43;;;;;;;27.97;24.97;;;19.30;93.90;;;;;;4877096;29;20271;-66
2022/06/21 11:57:14;;;;;;;26.57;23.70;;;19.30;93.90;;;;;;4854055;29;20224;-69
2022/06/21 12:00:04;;;;;;;27.97;25.00;;;19.40;93.80;;;;;;4873843;29;20257;-69
2022/06/21 12:03:14;;;;;;;29.10;23.80;;;19.40;94.00;;;;;;4885212;29;20195;-62
2022/06/21 12:06:01;;;;;;;30.70;24.83;;;19.40;94.10;;;;;;4824611;29;20183;-63
2022/06/21 12:08:39;;;;;;;28.03;23.57;;;19.40;94.00;;;;;;4885679;29;20213;-63
2022/06/21 12:11:43;;;;;;;28.97;25.53;;;19.30;93.30;;;;;;4879908;29;20192;-63
2022/06/21 12:14:12;;;;;;;29.60;25.40;;;19.30;93.60;;;;;;4883415;29;20294;-63
2022/06/21 12:16:41;;;;;;;32.73;26.83;;;19.30;93.70;;;;;;4899927;29;20256;-63
2022/06/21 12:19:14;;;;;;;35.70;26.37;;;19.40;93.90;;;;;;4883798;29;20307;-63
2022/06/21 12:21:48;;;;;;;30.43;24.77;;;19.40;93.90;;;;;;4891818;29;20324;-63
2022/06/21 12:24:20;;;;;;;26.57;23.20;;;19.50;93.90;;;;;;4892543;29;20222;-63
2022/06/21 12:26:47;;;;;;;26.93;22.00;;;19.50;93.80;;;;;;4880112;29;20238;-63
2022/06/21 12:29:16;;;;;;;24.23;21.30;;;19.50;93.20;;;;;;4865030;29;20209;-63
2022/06/21 12:31:51;;;;;;;25.57;21.83;;;19.50;93.70;;;;;;4881330;29;20232;-63
2022/06/21 12:34:40;;;;;;;28.87;22.23;;;19.60;93.70;;;;;;4881200;29;20222;-63
2022/06/21 12:37:36;;;;;;;26.50;23.73;;;19.60;93.10;;;;;;4875508;29;20192;-63
2022/06/21 12:40:05;;;;;;;30.77;22.93;;;19.60;93.80;;;;;;4880770;29;20276;-63
2022/06/21 12:42:53;;;;;;;28.23;21.03;;;19.70;93.40;;;;;;4882032;29;20215;-63
2022/06/21 12:45:56;;;;;;;25.83;20.60;;;19.80;93.60;;;;;;4880849;29;20195;-63
2022/06/21 12:48:41;;;;;;;23.53;19.87;;;19.80;92.70;;;;;;4812147;29;20209;-63
2022/06/21 12:51:34;;;;;;;27.10;20.53;;;19.90;91.90;;;;;;4875733;29;20208;-63
2022/06/21 12:54:24;;;;;;;25.07;19.33;;;20.00;92.90;;;;;;4873015;29;20260;-63
2022/06/21 12:57:30;;;;;;;21.17;16.63;;;20.00;92.80;;;;;;4878989;29;20193;-63
2022/06/21 13:00:03;;;;;;;24.20;17.00;;;20.00;91.60;;;;;;4897399;29;20215;-63
2022/06/21 13:03:04;;;;;;;21.67;17.67;;;19.90;91.70;;;;;;4880605;29;20192;-63
2022/06/21 13:05:51;;;;;;;20.47;17.57;;;20.00;92.10;;;;;;4886617;29;20198;-63
2022/06/21 13:08:30;;;;;;;22.73;17.87;;;20.00;91.90;;;;;;4897913;29;20210;-63
2022/06/21 13:11:14;;;;;;;25.70;18.20;;;20.00;92.90;;;;;;4897449;29;20201;-63
2022/06/21 13:14:16;;;;;;;23.60;17.17;;;20.10;93.10;;;;;;4893197;29;20195;-63
2022/06/21 13:17:04;;;;;;;23.03;15.93;;;20.10;92.20;;;;;;4876852;29;20211;-63
2022/06/21 13:19:44;;;;;;;23.80;16.30;;;20.10;92.10;;;;;;4881837;29;20211;-63
2022/06/21 13:22:34;;;;;;;21.13;16.70;;;20.10;92.40;;;;;;4892349;29;20259;-63
2022/06/21 13:25:19;;;;;;;21.77;17.77;;;20.10;92.60;;;;;;4868370;29;20200;-63
2022/06/21 13:28:22;;;;;;;18.50;16.30;;;20.20;92.80;;;;;;4868783;29;20203;-63
2022/06/21 13:31:03;;;;;;;20.77;15.73;;;20.10;91.50;;;;;;4896401;29;20202;-63
2022/06/21 13:33:58;;;;;;;18.87;16.07;;;20.00;90.10;;;;;;4881326;29;20207;-63
2022/06/21 13:36:39;;;;;;;18.40;16.40;;;20.00;90.70;;;;;;4879529;29;20200;-63
2022/06/21 13:39:41;;;;;;;18.23;15.93;;;20.10;91.30;;;;;;4897203;29;20305;-63
2022/06/21 13:45:04;;;;;;;18.97;16.90;;;20.20;91.80;;;;;;4884468;29;20191;-63
2022/06/21 13:48:01;;;;;;;18.83;16.70;;;20.20;91.40;;;;;;4881009;29;20196;-63
2022/06/21 13:51:00;;;;;;;20.07;15.43;;;20.20;91.80;;;;;;4807810;29;20308;-63